HTAT2: Little Wichita River abv Henrietta 3W

                                SHEF ID:       HTAT2     Little Wichita Rv abv Henrietta,
STATION TYPE:

PRECIP STAGE RIV-FLOW BAT-LOAD
in ft cfs volt
Ccp-Rev Ccp-Rev Ccp-Rev Ccp-Rev
(America/Chicago)
04/16 00:00 ---- 10.67 172 12.41
04/16 01:00 ---- 11.35 221 12.41
04/16 02:00 ---- 12.30 292 12.33
04/16 03:00 ---- 13.33 376 12.33
04/16 04:00 ---- 14.27 462 12.33
04/16 05:00 ---- 15.02 537 12.33
04/16 06:00 ---- 15.63 601 12.33
04/16 07:00 ---- 16.10 655 12.33
04/16 08:00 ---- 16.43 695 12.33
04/16 09:00 ---- 16.67 725 12.41
04/16 10:00 ---- 16.80 741 12.65
04/16 11:00 ---- 16.87 750 12.97
04/16 12:00 ---- 16.91 755 13.05
04/16 13:00 ---- 16.92 757 13.05
04/16 14:00 ---- 16.87 750 ----
04/16 15:00 ---- 16.79 740 13.13
04/16 16:00 ---- 16.68 726 13.13
04/16 17:00 ---- 16.57 712 13.05
04/16 18:00 ---- 16.44 696 12.89
04/16 19:00 ---- 16.27 675 12.73
04/16 20:00 ---- 16.10 655 12.65
04/16 21:00 ---- 15.91 632 12.57
04/16 22:00 ---- 15.70 609 12.57
04/16 23:00 ---- 15.47 584 12.57
Data processed at Fri 17Apr2026 04:37 GMT

NOTICE: If you are parsing this page

Please convert to using our Data API. Starting early 2026 we will be migrating to: https://water.usace.army.mil with modern pages rendered in JavaScript. When this migration completes you will no longer be able to scrape this page! CWMSDataAPI (CDA)

Timeseries IDs (TSIDs)

TSIDs used from left to right in the data table
HENR.Precip-Inc.Total.1Hour.1Hour.Ccp-Rev
HENR.Stage.Inst.1Hour.0.Ccp-Rev
HENR.Flow.Inst.1Hour.0.Ccp-Rev
HENR.Volt-Battery Load.Inst.1Hour.0.Ccp-Rev

                            

All information presented herein is the property of the government of the United States of America and may be revised or deleted at any time without prior notice. Dissemination of this information without the expressed written consent of the Public Affairs Office, Tulsa District U.S. Army Corps of Engineers is strictly prohibited. These data are gathered electronically and, as presented, have NOT undergone any form of quality control. These data are NOT guaranteed to be valid or correct.